sensor_id;sensor_type;location;lat;lon;timestamp;P1;durP1;ratioP1;P2;durP2;ratioP2
31652;SDS011;18261;53.648;9.910;2023-03-14T00:02:18;21.67;;;3.80;;
31652;SDS011;18261;53.648;9.910;2023-03-14T00:04:44;22.67;;;3.63;;
31652;SDS011;18261;53.648;9.910;2023-03-14T00:07:11;28.75;;;4.15;;
31652;SDS011;18261;53.648;9.910;2023-03-14T00:09:37;15.98;;;3.95;;
31652;SDS011;18261;53.648;9.910;2023-03-14T00:12:03;24.77;;;3.95;;
31652;SDS011;18261;53.648;9.910;2023-03-14T00:14:31;20.45;;;4.18;;
31652;SDS011;18261;53.648;9.910;2023-03-14T00:16:57;14.93;;;3.60;;
31652;SDS011;18261;53.648;9.910;2023-03-14T00:19:23;20.35;;;4.40;;
31652;SDS011;18261;53.648;9.910;2023-03-14T00:21:49;16.65;;;4.10;;
31652;SDS011;18261;53.648;9.910;2023-03-14T00:24:15;18.42;;;4.22;;
31652;SDS011;18261;53.648;9.910;2023-03-14T00:26:41;16.73;;;3.70;;
31652;SDS011;18261;53.648;9.910;2023-03-14T00:29:07;13.90;;;3.65;;
31652;SDS011;18261;53.648;9.910;2023-03-14T00:31:33;13.25;;;3.72;;
31652;SDS011;18261;53.648;9.910;2023-03-14T00:34:00;22.60;;;4.25;;
31652;SDS011;18261;53.648;9.910;2023-03-14T00:36:26;19.33;;;3.80;;
31652;SDS011;18261;53.648;9.910;2023-03-14T00:38:52;18.67;;;3.97;;
31652;SDS011;18261;53.648;9.910;2023-03-14T00:41:20;22.13;;;4.10;;
31652;SDS011;18261;53.648;9.910;2023-03-14T00:43:47;23.40;;;5.00;;
31652;SDS011;18261;53.648;9.910;2023-03-14T00:46:13;18.42;;;3.95;;
31652;SDS011;18261;53.648;9.910;2023-03-14T00:48:39;23.85;;;3.95;;
31652;SDS011;18261;53.648;9.910;2023-03-14T00:51:07;12.60;;;3.70;;
31652;SDS011;18261;53.648;9.910;2023-03-14T00:53:36;20.77;;;4.20;;
31652;SDS011;18261;53.648;9.910;2023-03-14T00:56:03;15.05;;;3.80;;
31652;SDS011;18261;53.648;9.910;2023-03-14T00:58:29;26.63;;;4.32;;
31652;SDS011;18261;53.648;9.910;2023-03-14T01:00:55;19.58;;;3.50;;
31652;SDS011;18261;53.648;9.910;2023-03-14T01:03:21;14.50;;;3.80;;
31652;SDS011;18261;53.648;9.910;2023-03-14T01:05:49;18.27;;;3.88;;
31652;SDS011;18261;53.648;9.910;2023-03-14T01:08:15;15.35;;;4.05;;
31652;SDS011;18261;53.648;9.910;2023-03-14T01:10:41;18.90;;;4.07;;
31652;SDS011;18261;53.648;9.910;2023-03-14T01:13:07;23.58;;;3.88;;
31652;SDS011;18261;53.648;9.910;2023-03-14T01:15:33;16.23;;;3.20;;
31652;SDS011;18261;53.648;9.910;2023-03-14T01:17:59;23.15;;;3.85;;
31652;SDS011;18261;53.648;9.910;2023-03-14T01:20:25;20.63;;;3.88;;
31652;SDS011;18261;53.648;9.910;2023-03-14T01:22:51;19.38;;;3.67;;
31652;SDS011;18261;53.648;9.910;2023-03-14T01:25:17;23.00;;;4.47;;
31652;SDS011;18261;53.648;9.910;2023-03-14T01:27:43;19.15;;;3.38;;
31652;SDS011;18261;53.648;9.910;2023-03-14T01:30:10;22.02;;;4.22;;
31652;SDS011;18261;53.648;9.910;2023-03-14T01:32:37;21.70;;;5.00;;
31652;SDS011;18261;53.648;9.910;2023-03-14T01:35:03;22.05;;;4.25;;
31652;SDS011;18261;53.648;9.910;2023-03-14T01:37:30;20.05;;;4.10;;
31652;SDS011;18261;53.648;9.910;2023-03-14T01:39:56;21.15;;;4.07;;
31652;SDS011;18261;53.648;9.910;2023-03-14T01:42:22;28.90;;;5.25;;
31652;SDS011;18261;53.648;9.910;2023-03-14T01:44:55;22.92;;;4.10;;
31652;SDS011;18261;53.648;9.910;2023-03-14T01:47:22;24.40;;;4.38;;
31652;SDS011;18261;53.648;9.910;2023-03-14T01:49:50;22.52;;;3.80;;
31652;SDS011;18261;53.648;9.910;2023-03-14T01:52:22;23.83;;;4.63;;
31652;SDS011;18261;53.648;9.910;2023-03-14T01:54:50;28.00;;;4.18;;
31652;SDS011;18261;53.648;9.910;2023-03-14T01:59:43;21.17;;;3.53;;
31652;SDS011;18261;53.648;9.910;2023-03-14T02:02:11;16.23;;;3.80;;
31652;SDS011;18261;53.648;9.910;2023-03-14T02:04:38;18.58;;;3.75;;
31652;SDS011;18261;53.648;9.910;2023-03-14T02:07:15;17.15;;;4.05;;
31652;SDS011;18261;53.648;9.910;2023-03-14T02:09:41;21.35;;;4.50;;
31652;SDS011;18261;53.648;9.910;2023-03-14T02:12:08;20.55;;;3.95;;
31652;SDS011;18261;53.648;9.910;2023-03-14T02:14:36;21.80;;;3.88;;
31652;SDS011;18261;53.648;9.910;2023-03-14T02:17:03;21.08;;;4.05;;
31652;SDS011;18261;53.648;9.910;2023-03-14T02:19:42;14.60;;;4.05;;
31652;SDS011;18261;53.648;9.910;2023-03-14T02:22:11;15.20;;;4.57;;
31652;SDS011;18261;53.648;9.910;2023-03-14T02:27:14;21.25;;;4.53;;
31652;SDS011;18261;53.648;9.910;2023-03-14T02:29:45;17.40;;;4.30;;
31652;SDS011;18261;53.648;9.910;2023-03-14T02:32:12;21.00;;;4.35;;
31652;SDS011;18261;53.648;9.910;2023-03-14T02:34:38;15.52;;;4.30;;
31652;SDS011;18261;53.648;9.910;2023-03-14T02:37:05;16.85;;;4.20;;
31652;SDS011;18261;53.648;9.910;2023-03-14T02:39:38;15.95;;;4.55;;
31652;SDS011;18261;53.648;9.910;2023-03-14T02:42:05;18.03;;;4.43;;
31652;SDS011;18261;53.648;9.910;2023-03-14T02:44:31;23.10;;;4.53;;
31652;SDS011;18261;53.648;9.910;2023-03-14T02:46:57;18.60;;;4.25;;
31652;SDS011;18261;53.648;9.910;2023-03-14T02:49:23;22.60;;;4.88;;
31652;SDS011;18261;53.648;9.910;2023-03-14T02:51:50;18.67;;;4.00;;
31652;SDS011;18261;53.648;9.910;2023-03-14T02:54:16;21.90;;;4.72;;
31652;SDS011;18261;53.648;9.910;2023-03-14T02:56:44;17.77;;;4.32;;
31652;SDS011;18261;53.648;9.910;2023-03-14T02:59:10;20.45;;;4.60;;
31652;SDS011;18261;53.648;9.910;2023-03-14T03:01:36;16.25;;;4.28;;
31652;SDS011;18261;53.648;9.910;2023-03-14T03:04:02;18.02;;;4.22;;
31652;SDS011;18261;53.648;9.910;2023-03-14T03:06:28;22.27;;;4.45;;
31652;SDS011;18261;53.648;9.910;2023-03-14T03:08:54;18.95;;;4.35;;
31652;SDS011;18261;53.648;9.910;2023-03-14T03:11:20;16.80;;;4.10;;
31652;SDS011;18261;53.648;9.910;2023-03-14T03:13:46;17.50;;;4.80;;
31652;SDS011;18261;53.648;9.910;2023-03-14T03:16:12;16.33;;;3.92;;
31652;SDS011;18261;53.648;9.910;2023-03-14T03:18:39;15.18;;;4.40;;
31652;SDS011;18261;53.648;9.910;2023-03-14T03:21:06;16.08;;;3.85;;
31652;SDS011;18261;53.648;9.910;2023-03-14T03:23:33;15.48;;;4.70;;
31652;SDS011;18261;53.648;9.910;2023-03-14T03:26:00;18.63;;;4.88;;
31652;SDS011;18261;53.648;9.910;2023-03-14T03:28:27;15.02;;;3.67;;
31652;SDS011;18261;53.648;9.910;2023-03-14T03:30:53;18.65;;;4.78;;
31652;SDS011;18261;53.648;9.910;2023-03-14T03:33:19;14.10;;;4.47;;
31652;SDS011;18261;53.648;9.910;2023-03-14T03:35:50;25.20;;;5.28;;
31652;SDS011;18261;53.648;9.910;2023-03-14T03:38:17;18.45;;;4.68;;
31652;SDS011;18261;53.648;9.910;2023-03-14T03:40:45;14.68;;;4.30;;
31652;SDS011;18261;53.648;9.910;2023-03-14T03:43:11;18.10;;;4.22;;
31652;SDS011;18261;53.648;9.910;2023-03-14T03:45:37;21.50;;;4.95;;
31652;SDS011;18261;53.648;9.910;2023-03-14T03:48:03;18.58;;;4.60;;
31652;SDS011;18261;53.648;9.910;2023-03-14T03:50:29;14.02;;;3.88;;
31652;SDS011;18261;53.648;9.910;2023-03-14T03:52:55;15.00;;;4.35;;
31652;SDS011;18261;53.648;9.910;2023-03-14T03:55:21;17.10;;;4.10;;
31652;SDS011;18261;53.648;9.910;2023-03-14T03:57:47;13.60;;;3.80;;
31652;SDS011;18261;53.648;9.910;2023-03-14T04:00:13;20.67;;;4.40;;
31652;SDS011;18261;53.648;9.910;2023-03-14T04:02:40;15.90;;;4.45;;
31652;SDS011;18261;53.648;9.910;2023-03-14T04:05:06;18.13;;;4.15;;
31652;SDS011;18261;53.648;9.910;2023-03-14T04:07:32;20.95;;;4.78;;
31652;SDS011;18261;53.648;9.910;2023-03-14T04:09:59;21.08;;;3.60;;
31652;SDS011;18261;53.648;9.910;2023-03-14T04:12:25;16.63;;;3.58;;
31652;SDS011;18261;53.648;9.910;2023-03-14T04:14:51;22.75;;;4.30;;
31652;SDS011;18261;53.648;9.910;2023-03-14T04:17:17;16.52;;;3.92;;
31652;SDS011;18261;53.648;9.910;2023-03-14T04:19:43;21.92;;;4.32;;
31652;SDS011;18261;53.648;9.910;2023-03-14T04:22:09;18.75;;;4.63;;
31652;SDS011;18261;53.648;9.910;2023-03-14T04:24:35;15.15;;;3.95;;
31652;SDS011;18261;53.648;9.910;2023-03-14T04:27:01;15.13;;;3.75;;
31652;SDS011;18261;53.648;9.910;2023-03-14T04:29:27;17.52;;;4.15;;
31652;SDS011;18261;53.648;9.910;2023-03-14T04:31:53;17.23;;;3.67;;
31652;SDS011;18261;53.648;9.910;2023-03-14T04:34:19;18.45;;;4.35;;
31652;SDS011;18261;53.648;9.910;2023-03-14T04:36:45;16.30;;;4.25;;
31652;SDS011;18261;53.648;9.910;2023-03-14T04:39:11;19.85;;;4.18;;
31652;SDS011;18261;53.648;9.910;2023-03-14T04:41:37;14.95;;;3.20;;
31652;SDS011;18261;53.648;9.910;2023-03-14T04:44:03;5.63;;;2.00;;
31652;SDS011;18261;53.648;9.910;2023-03-14T04:46:29;9.70;;;1.92;;
31652;SDS011;18261;53.648;9.910;2023-03-14T04:48:55;15.43;;;2.50;;
31652;SDS011;18261;53.648;9.910;2023-03-14T04:51:21;5.20;;;1.27;;
31652;SDS011;18261;53.648;9.910;2023-03-14T04:53:48;5.38;;;1.33;;
31652;SDS011;18261;53.648;9.910;2023-03-14T04:56:14;7.25;;;1.60;;
31652;SDS011;18261;53.648;9.910;2023-03-14T04:58:40;9.68;;;1.45;;
31652;SDS011;18261;53.648;9.910;2023-03-14T05:01:06;7.97;;;1.55;;
31652;SDS011;18261;53.648;9.910;2023-03-14T05:03:32;6.00;;;1.80;;
31652;SDS011;18261;53.648;9.910;2023-03-14T05:06:00;6.22;;;1.70;;
31652;SDS011;18261;53.648;9.910;2023-03-14T05:08:27;6.22;;;1.50;;
31652;SDS011;18261;53.648;9.910;2023-03-14T05:10:53;6.68;;;1.50;;
31652;SDS011;18261;53.648;9.910;2023-03-14T05:13:19;7.70;;;1.45;;
31652;SDS011;18261;53.648;9.910;2023-03-14T05:15:45;9.18;;;1.60;;
31652;SDS011;18261;53.648;9.910;2023-03-14T05:18:11;7.50;;;1.77;;
31652;SDS011;18261;53.648;9.910;2023-03-14T05:20:37;10.70;;;1.60;;
31652;SDS011;18261;53.648;9.910;2023-03-14T05:23:03;9.30;;;1.70;;
31652;SDS011;18261;53.648;9.910;2023-03-14T05:25:29;10.15;;;2.10;;
31652;SDS011;18261;53.648;9.910;2023-03-14T05:27:55;11.02;;;2.20;;
31652;SDS011;18261;53.648;9.910;2023-03-14T05:30:21;8.13;;;2.00;;
31652;SDS011;18261;53.648;9.910;2023-03-14T05:32:48;7.85;;;2.05;;
31652;SDS011;18261;53.648;9.910;2023-03-14T05:35:14;9.93;;;2.25;;
31652;SDS011;18261;53.648;9.910;2023-03-14T05:37:40;11.73;;;2.55;;
31652;SDS011;18261;53.648;9.910;2023-03-14T05:40:06;8.45;;;2.40;;
31652;SDS011;18261;53.648;9.910;2023-03-14T05:42:33;9.60;;;2.70;;
31652;SDS011;18261;53.648;9.910;2023-03-14T05:44:59;10.07;;;2.60;;
31652;SDS011;18261;53.648;9.910;2023-03-14T05:47:25;17.13;;;3.22;;
31652;SDS011;18261;53.648;9.910;2023-03-14T05:49:51;8.45;;;2.33;;
31652;SDS011;18261;53.648;9.910;2023-03-14T05:52:17;10.02;;;3.17;;
31652;SDS011;18261;53.648;9.910;2023-03-14T05:54:43;12.88;;;3.05;;
31652;SDS011;18261;53.648;9.910;2023-03-14T05:57:09;11.90;;;3.20;;
31652;SDS011;18261;53.648;9.910;2023-03-14T05:59:35;11.95;;;3.22;;
31652;SDS011;18261;53.648;9.910;2023-03-14T06:02:01;14.02;;;3.80;;
31652;SDS011;18261;53.648;9.910;2023-03-14T06:04:27;15.63;;;4.15;;
31652;SDS011;18261;53.648;9.910;2023-03-14T06:06:53;10.07;;;4.10;;
31652;SDS011;18261;53.648;9.910;2023-03-14T06:09:20;14.95;;;4.00;;
31652;SDS011;18261;53.648;9.910;2023-03-14T06:11:48;15.82;;;5.13;;
31652;SDS011;18261;53.648;9.910;2023-03-14T06:14:14;22.38;;;5.50;;
31652;SDS011;18261;53.648;9.910;2023-03-14T06:16:40;15.02;;;4.82;;
31652;SDS011;18261;53.648;9.910;2023-03-14T06:19:06;24.13;;;6.05;;
31652;SDS011;18261;53.648;9.910;2023-03-14T06:21:32;19.55;;;6.13;;
31652;SDS011;18261;53.648;9.910;2023-03-14T06:23:58;14.45;;;5.97;;
31652;SDS011;18261;53.648;9.910;2023-03-14T06:26:24;19.70;;;6.47;;
31652;SDS011;18261;53.648;9.910;2023-03-14T06:28:50;18.05;;;7.65;;
31652;SDS011;18261;53.648;9.910;2023-03-14T06:31:16;24.75;;;9.40;;
31652;SDS011;18261;53.648;9.910;2023-03-14T06:33:42;17.25;;;7.07;;
31652;SDS011;18261;53.648;9.910;2023-03-14T06:36:08;20.48;;;8.50;;
31652;SDS011;18261;53.648;9.910;2023-03-14T06:38:34;20.48;;;7.80;;
31652;SDS011;18261;53.648;9.910;2023-03-14T06:41:06;21.50;;;7.85;;
31652;SDS011;18261;53.648;9.910;2023-03-14T06:43:33;14.55;;;8.27;;
31652;SDS011;18261;53.648;9.910;2023-03-14T06:45:59;20.65;;;7.80;;
31652;SDS011;18261;53.648;9.910;2023-03-14T06:48:25;25.45;;;8.70;;
31652;SDS011;18261;53.648;9.910;2023-03-14T06:50:51;25.48;;;7.55;;
31652;SDS011;18261;53.648;9.910;2023-03-14T06:53:17;27.33;;;7.68;;
31652;SDS011;18261;53.648;9.910;2023-03-14T06:55:43;19.50;;;7.13;;
31652;SDS011;18261;53.648;9.910;2023-03-14T06:58:10;19.48;;;6.93;;
31652;SDS011;18261;53.648;9.910;2023-03-14T07:00:36;19.90;;;5.68;;
31652;SDS011;18261;53.648;9.910;2023-03-14T07:03:02;24.85;;;5.82;;
31652;SDS011;18261;53.648;9.910;2023-03-14T07:05:28;23.25;;;9.55;;
31652;SDS011;18261;53.648;9.910;2023-03-14T07:07:54;20.95;;;5.40;;
31652;SDS011;18261;53.648;9.910;2023-03-14T07:10:21;16.25;;;5.53;;
31652;SDS011;18261;53.648;9.910;2023-03-14T07:12:47;18.45;;;5.20;;
31652;SDS011;18261;53.648;9.910;2023-03-14T07:15:13;18.63;;;4.47;;
31652;SDS011;18261;53.648;9.910;2023-03-14T07:17:39;17.83;;;4.35;;
31652;SDS011;18261;53.648;9.910;2023-03-14T07:20:05;24.75;;;4.22;;
31652;SDS011;18261;53.648;9.910;2023-03-14T07:22:32;13.27;;;3.63;;
31652;SDS011;18261;53.648;9.910;2023-03-14T07:24:58;16.05;;;3.42;;
31652;SDS011;18261;53.648;9.910;2023-03-14T07:27:24;21.25;;;3.85;;
31652;SDS011;18261;53.648;9.910;2023-03-14T07:29:50;18.52;;;3.85;;
31652;SDS011;18261;53.648;9.910;2023-03-14T07:32:16;17.88;;;3.10;;
31652;SDS011;18261;53.648;9.910;2023-03-14T07:34:42;16.58;;;2.90;;
31652;SDS011;18261;53.648;9.910;2023-03-14T07:37:09;19.02;;;3.25;;
31652;SDS011;18261;53.648;9.910;2023-03-14T07:39:35;17.52;;;2.80;;
31652;SDS011;18261;53.648;9.910;2023-03-14T07:42:01;12.85;;;2.80;;
31652;SDS011;18261;53.648;9.910;2023-03-14T07:44:27;11.20;;;3.08;;
31652;SDS011;18261;53.648;9.910;2023-03-14T07:46:53;26.70;;;8.65;;
31652;SDS011;18261;53.648;9.910;2023-03-14T07:49:19;12.35;;;3.20;;
31652;SDS011;18261;53.648;9.910;2023-03-14T07:51:48;15.35;;;3.38;;
31652;SDS011;18261;53.648;9.910;2023-03-14T07:54:15;21.20;;;3.13;;
31652;SDS011;18261;53.648;9.910;2023-03-14T07:56:41;17.98;;;3.13;;
31652;SDS011;18261;53.648;9.910;2023-03-14T07:59:07;16.77;;;3.38;;
31652;SDS011;18261;53.648;9.910;2023-03-14T08:01:33;10.98;;;2.80;;
31652;SDS011;18261;53.648;9.910;2023-03-14T08:03:59;13.25;;;3.28;;
31652;SDS011;18261;53.648;9.910;2023-03-14T08:06:25;18.55;;;3.58;;
31652;SDS011;18261;53.648;9.910;2023-03-14T08:08:51;17.02;;;3.38;;
31652;SDS011;18261;53.648;9.910;2023-03-14T08:11:17;16.10;;;3.03;;
31652;SDS011;18261;53.648;9.910;2023-03-14T08:13:43;20.35;;;4.00;;
31652;SDS011;18261;53.648;9.910;2023-03-14T08:16:15;16.58;;;3.60;;
31652;SDS011;18261;53.648;9.910;2023-03-14T08:18:41;15.18;;;3.28;;
31652;SDS011;18261;53.648;9.910;2023-03-14T08:21:07;15.82;;;3.22;;
31652;SDS011;18261;53.648;9.910;2023-03-14T08:23:33;18.10;;;2.90;;
31652;SDS011;18261;53.648;9.910;2023-03-14T08:25:59;12.55;;;2.63;;
31652;SDS011;18261;53.648;9.910;2023-03-14T08:28:25;13.55;;;2.78;;
31652;SDS011;18261;53.648;9.910;2023-03-14T08:30:57;8.90;;;2.42;;
31652;SDS011;18261;53.648;9.910;2023-03-14T08:33:23;8.50;;;1.90;;
31652;SDS011;18261;53.648;9.910;2023-03-14T08:35:56;14.48;;;2.03;;
31652;SDS011;18261;53.648;9.910;2023-03-14T08:38:22;11.38;;;2.58;;
31652;SDS011;18261;53.648;9.910;2023-03-14T08:40:48;10.98;;;2.50;;
31652;SDS011;18261;53.648;9.910;2023-03-14T08:43:15;13.55;;;2.30;;
31652;SDS011;18261;53.648;9.910;2023-03-14T08:45:41;15.88;;;2.78;;
31652;SDS011;18261;53.648;9.910;2023-03-14T08:48:07;8.18;;;2.10;;
31652;SDS011;18261;53.648;9.910;2023-03-14T08:50:33;14.80;;;2.67;;
31652;SDS011;18261;53.648;9.910;2023-03-14T08:52:59;11.85;;;3.53;;
31652;SDS011;18261;53.648;9.910;2023-03-14T08:55:26;16.35;;;2.95;;
31652;SDS011;18261;53.648;9.910;2023-03-14T08:57:55;8.05;;;2.47;;
31652;SDS011;18261;53.648;9.910;2023-03-14T09:00:21;12.23;;;2.90;;
31652;SDS011;18261;53.648;9.910;2023-03-14T09:02:47;9.13;;;2.58;;
31652;SDS011;18261;53.648;9.910;2023-03-14T09:05:13;14.80;;;3.63;;
31652;SDS011;18261;53.648;9.910;2023-03-14T09:07:40;9.32;;;2.80;;
31652;SDS011;18261;53.648;9.910;2023-03-14T09:10:06;14.48;;;3.10;;
31652;SDS011;18261;53.648;9.910;2023-03-14T09:12:33;13.40;;;2.92;;
31652;SDS011;18261;53.648;9.910;2023-03-14T09:14:59;12.73;;;2.88;;
31652;SDS011;18261;53.648;9.910;2023-03-14T09:17:25;14.38;;;3.40;;
31652;SDS011;18261;53.648;9.910;2023-03-14T09:19:51;10.60;;;3.20;;
31652;SDS011;18261;53.648;9.910;2023-03-14T09:22:17;17.73;;;4.75;;
31652;SDS011;18261;53.648;9.910;2023-03-14T09:24:43;19.33;;;3.78;;
31652;SDS011;18261;53.648;9.910;2023-03-14T09:27:09;15.15;;;3.10;;
31652;SDS011;18261;53.648;9.910;2023-03-14T09:29:35;11.70;;;3.45;;
31652;SDS011;18261;53.648;9.910;2023-03-14T09:32:01;15.35;;;3.72;;
31652;SDS011;18261;53.648;9.910;2023-03-14T09:34:28;19.08;;;3.70;;
31652;SDS011;18261;53.648;9.910;2023-03-14T09:36:54;14.90;;;3.97;;
31652;SDS011;18261;53.648;9.910;2023-03-14T09:39:20;13.88;;;3.30;;
31652;SDS011;18261;53.648;9.910;2023-03-14T09:41:47;15.10;;;3.83;;
31652;SDS011;18261;53.648;9.910;2023-03-14T09:44:15;8.30;;;1.65;;
31652;SDS011;18261;53.648;9.910;2023-03-14T09:46:43;6.05;;;1.48;;
31652;SDS011;18261;53.648;9.910;2023-03-14T09:49:10;7.43;;;1.52;;
31652;SDS011;18261;53.648;9.910;2023-03-14T09:51:37;2.20;;;0.98;;
31652;SDS011;18261;53.648;9.910;2023-03-14T09:54:03;6.38;;;1.15;;
31652;SDS011;18261;53.648;9.910;2023-03-14T09:56:32;5.32;;;1.52;;
31652;SDS011;18261;53.648;9.910;2023-03-14T09:58:58;6.20;;;1.50;;
31652;SDS011;18261;53.648;9.910;2023-03-14T10:01:29;10.07;;;1.35;;
31652;SDS011;18261;53.648;9.910;2023-03-14T10:03:57;5.57;;;1.35;;
31652;SDS011;18261;53.648;9.910;2023-03-14T10:06:24;11.85;;;2.67;;
31652;SDS011;18261;53.648;9.910;2023-03-14T10:08:51;7.03;;;2.08;;
31652;SDS011;18261;53.648;9.910;2023-03-14T10:11:18;5.82;;;1.88;;
31652;SDS011;18261;53.648;9.910;2023-03-14T10:14:28;2.70;;;1.00;;
31652;SDS011;18261;53.648;9.910;2023-03-14T10:16:40;2.13;;;0.90;;
31652;SDS011;18261;53.648;9.910;2023-03-14T10:19:09;2.25;;;0.80;;
31652;SDS011;18261;53.648;9.910;2023-03-14T10:21:37;5.15;;;1.17;;
31652;SDS011;18261;53.648;9.910;2023-03-14T10:26:35;7.32;;;0.93;;
31652;SDS011;18261;53.648;9.910;2023-03-14T10:29:12;6.22;;;1.05;;
31652;SDS011;18261;53.648;9.910;2023-03-14T10:31:54;2.63;;;0.68;;
31652;SDS011;18261;53.648;9.910;2023-03-14T10:34:22;1.83;;;0.68;;
31652;SDS011;18261;53.648;9.910;2023-03-14T10:36:52;1.73;;;0.60;;
31652;SDS011;18261;53.648;9.910;2023-03-14T10:39:38;2.58;;;0.80;;
31652;SDS011;18261;53.648;9.910;2023-03-14T10:42:26;3.45;;;0.60;;
31652;SDS011;18261;53.648;9.910;2023-03-14T10:47:49;3.30;;;1.10;;
31652;SDS011;18261;53.648;9.910;2023-03-14T10:50:29;2.75;;;1.10;;
31652;SDS011;18261;53.648;9.910;2023-03-14T10:52:56;1.60;;;0.65;;
31652;SDS011;18261;53.648;9.910;2023-03-14T10:55:23;0.98;;;0.50;;
31652;SDS011;18261;53.648;9.910;2023-03-14T10:57:51;3.50;;;0.77;;
31652;SDS011;18261;53.648;9.910;2023-03-14T11:00:18;3.20;;;0.80;;
31652;SDS011;18261;53.648;9.910;2023-03-14T11:02:47;3.72;;;0.90;;
31652;SDS011;18261;53.648;9.910;2023-03-14T11:05:24;4.28;;;1.17;;
31652;SDS011;18261;53.648;9.910;2023-03-14T11:08:01;3.05;;;1.02;;
31652;SDS011;18261;53.648;9.910;2023-03-14T11:11:02;2.28;;;0.85;;
31652;SDS011;18261;53.648;9.910;2023-03-14T11:13:22;3.67;;;1.05;;
31652;SDS011;18261;53.648;9.910;2023-03-14T11:24:24;4.75;;;0.93;;
31652;SDS011;18261;53.648;9.910;2023-03-14T11:27:15;5.53;;;1.20;;
31652;SDS011;18261;53.648;9.910;2023-03-14T11:32:42;10.38;;;1.63;;
31652;SDS011;18261;53.648;9.910;2023-03-14T11:35:17;12.52;;;2.17;;
31652;SDS011;18261;53.648;9.910;2023-03-14T11:37:48;9.32;;;2.75;;
31652;SDS011;18261;53.648;9.910;2023-03-14T11:42:44;11.32;;;1.70;;
31652;SDS011;18261;53.648;9.910;2023-03-14T11:45:34;12.68;;;2.15;;
31652;SDS011;18261;53.648;9.910;2023-03-14T11:48:06;9.68;;;2.40;;
31652;SDS011;18261;53.648;9.910;2023-03-14T11:53:03;14.90;;;2.15;;
31652;SDS011;18261;53.648;9.910;2023-03-14T11:55:31;18.45;;;2.17;;
31652;SDS011;18261;53.648;9.910;2023-03-14T11:58:00;11.40;;;2.13;;
31652;SDS011;18261;53.648;9.910;2023-03-14T12:00:27;14.38;;;2.15;;
31652;SDS011;18261;53.648;9.910;2023-03-14T12:03:11;13.27;;;2.28;;
31652;SDS011;18261;53.648;9.910;2023-03-14T12:10:58;22.42;;;2.58;;
31652;SDS011;18261;53.648;9.910;2023-03-14T12:13:27;13.27;;;2.10;;
31652;SDS011;18261;53.648;9.910;2023-03-14T12:15:58;16.67;;;2.08;;
31652;SDS011;18261;53.648;9.910;2023-03-14T12:18:28;18.83;;;3.42;;
31652;SDS011;18261;53.648;9.910;2023-03-14T12:20:55;18.92;;;2.97;;
31652;SDS011;18261;53.648;9.910;2023-03-14T12:23:22;17.70;;;2.22;;
31652;SDS011;18261;53.648;9.910;2023-03-14T12:25:57;22.52;;;3.13;;
31652;SDS011;18261;53.648;9.910;2023-03-14T12:28:31;16.80;;;2.92;;
31652;SDS011;18261;53.648;9.910;2023-03-14T12:31:06;22.02;;;2.90;;
31652;SDS011;18261;53.648;9.910;2023-03-14T12:33:43;25.50;;;3.28;;
31652;SDS011;18261;53.648;9.910;2023-03-14T12:36:11;18.63;;;2.97;;
31652;SDS011;18261;53.648;9.910;2023-03-14T12:38:43;18.05;;;2.80;;
31652;SDS011;18261;53.648;9.910;2023-03-14T12:43:40;20.25;;;3.25;;
31652;SDS011;18261;53.648;9.910;2023-03-14T12:46:07;23.48;;;3.55;;
31652;SDS011;18261;53.648;9.910;2023-03-14T12:48:34;18.95;;;2.88;;
31652;SDS011;18261;53.648;9.910;2023-03-14T12:51:04;29.10;;;3.55;;
31652;SDS011;18261;53.648;9.910;2023-03-14T13:01:21;19.88;;;2.80;;
31652;SDS011;18261;53.648;9.910;2023-03-14T13:03:49;26.63;;;3.60;;
31652;SDS011;18261;53.648;9.910;2023-03-14T13:11:47;29.85;;;4.72;;
31652;SDS011;18261;53.648;9.910;2023-03-14T13:14:13;23.42;;;4.07;;
31652;SDS011;18261;53.648;9.910;2023-03-14T13:16:39;34.75;;;4.72;;
31652;SDS011;18261;53.648;9.910;2023-03-14T13:19:14;24.13;;;3.95;;
31652;SDS011;18261;53.648;9.910;2023-03-14T13:21:42;24.45;;;3.28;;
31652;SDS011;18261;53.648;9.910;2023-03-14T13:24:42;34.47;;;3.90;;
31652;SDS011;18261;53.648;9.910;2023-03-14T13:27:01;32.63;;;5.80;;
31652;SDS011;18261;53.648;9.910;2023-03-14T13:29:28;26.13;;;4.47;;
31652;SDS011;18261;53.648;9.910;2023-03-14T13:31:56;26.77;;;3.10;;
31652;SDS011;18261;53.648;9.910;2023-03-14T13:34:24;12.65;;;2.22;;
31652;SDS011;18261;53.648;9.910;2023-03-14T13:36:51;17.45;;;2.17;;
31652;SDS011;18261;53.648;9.910;2023-03-14T13:39:18;12.82;;;2.15;;
31652;SDS011;18261;53.648;9.910;2023-03-14T13:41:47;16.90;;;2.70;;
31652;SDS011;18261;53.648;9.910;2023-03-14T13:44:15;15.40;;;2.42;;
31652;SDS011;18261;53.648;9.910;2023-03-14T13:46:42;27.17;;;3.30;;
31652;SDS011;18261;53.648;9.910;2023-03-14T13:49:12;19.42;;;2.88;;
31652;SDS011;18261;53.648;9.910;2023-03-14T13:51:41;18.15;;;3.60;;
31652;SDS011;18261;53.648;9.910;2023-03-14T13:54:17;28.95;;;3.53;;
31652;SDS011;18261;53.648;9.910;2023-03-14T13:56:43;38.40;;;4.03;;
31652;SDS011;18261;53.648;9.910;2023-03-14T13:59:23;23.00;;;3.35;;
31652;SDS011;18261;53.648;9.910;2023-03-14T14:01:49;18.20;;;3.15;;
31652;SDS011;18261;53.648;9.910;2023-03-14T14:04:16;17.23;;;3.05;;
31652;SDS011;18261;53.648;9.910;2023-03-14T14:06:47;21.60;;;4.43;;
31652;SDS011;18261;53.648;9.910;2023-03-14T14:09:16;19.75;;;3.38;;
31652;SDS011;18261;53.648;9.910;2023-03-14T14:14:19;26.67;;;3.30;;
31652;SDS011;18261;53.648;9.910;2023-03-14T14:16:46;18.80;;;2.72;;
31652;SDS011;18261;53.648;9.910;2023-03-14T14:19:13;18.98;;;2.72;;
31652;SDS011;18261;53.648;9.910;2023-03-14T14:21:39;15.90;;;2.55;;
31652;SDS011;18261;53.648;9.910;2023-03-14T14:24:07;17.27;;;3.88;;
31652;SDS011;18261;53.648;9.910;2023-03-14T14:26:33;26.70;;;3.10;;
31652;SDS011;18261;53.648;9.910;2023-03-14T14:29:01;18.48;;;3.33;;
31652;SDS011;18261;53.648;9.910;2023-03-14T14:31:27;20.45;;;3.08;;
31652;SDS011;18261;53.648;9.910;2023-03-14T14:33:57;17.80;;;2.83;;
31652;SDS011;18261;53.648;9.910;2023-03-14T14:38:53;13.60;;;2.47;;
31652;SDS011;18261;53.648;9.910;2023-03-14T14:41:19;16.77;;;2.70;;
31652;SDS011;18261;53.648;9.910;2023-03-14T14:43:46;16.88;;;2.72;;
31652;SDS011;18261;53.648;9.910;2023-03-14T14:46:15;10.05;;;2.17;;
31652;SDS011;18261;53.648;9.910;2023-03-14T14:48:42;19.55;;;2.42;;
31652;SDS011;18261;53.648;9.910;2023-03-14T14:51:08;21.23;;;6.35;;
31652;SDS011;18261;53.648;9.910;2023-03-14T14:53:38;19.92;;;2.80;;
31652;SDS011;18261;53.648;9.910;2023-03-14T14:56:18;20.25;;;2.72;;
31652;SDS011;18261;53.648;9.910;2023-03-14T14:58:47;16.38;;;2.30;;
31652;SDS011;18261;53.648;9.910;2023-03-14T15:01:17;26.15;;;3.08;;
31652;SDS011;18261;53.648;9.910;2023-03-14T15:03:45;20.55;;;2.95;;
31652;SDS011;18261;53.648;9.910;2023-03-14T15:06:12;22.17;;;3.50;;
31652;SDS011;18261;53.648;9.910;2023-03-14T15:08:39;24.73;;;3.00;;
31652;SDS011;18261;53.648;9.910;2023-03-14T15:11:05;19.52;;;3.10;;
31652;SDS011;18261;53.648;9.910;2023-03-14T15:13:31;18.80;;;2.85;;
31652;SDS011;18261;53.648;9.910;2023-03-14T15:15:57;16.83;;;3.22;;
31652;SDS011;18261;53.648;9.910;2023-03-14T15:18:24;17.90;;;3.00;;
31652;SDS011;18261;53.648;9.910;2023-03-14T15:20:50;20.10;;;2.80;;
31652;SDS011;18261;53.648;9.910;2023-03-14T15:23:17;23.70;;;3.55;;
31652;SDS011;18261;53.648;9.910;2023-03-14T15:25:43;19.98;;;3.13;;
31652;SDS011;18261;53.648;9.910;2023-03-14T15:28:19;23.60;;;4.20;;
31652;SDS011;18261;53.648;9.910;2023-03-14T15:30:49;26.77;;;3.67;;
31652;SDS011;18261;53.648;9.910;2023-03-14T15:33:15;17.00;;;3.25;;